sensor_id;sensor_type;location;lat;lon;timestamp;P1;P2;P0
72329;PMS5003;60660;52.076;5.110;2023-02-28T00:00:00;9;9;
72329;PMS5003;60660;52.076;5.110;2023-02-28T00:02:26;12;11;
72329;PMS5003;60660;52.076;5.110;2023-02-28T00:04:52;9;9;
72329;PMS5003;60660;52.076;5.110;2023-02-28T00:07:17;11;9;
72329;PMS5003;60660;52.076;5.110;2023-02-28T00:09:43;12;12;
72329;PMS5003;60660;52.076;5.110;2023-02-28T00:12:09;12;12;
72329;PMS5003;60660;52.076;5.110;2023-02-28T00:14:34;15;13;
72329;PMS5003;60660;52.076;5.110;2023-02-28T00:17:00;11;9;
72329;PMS5003;60660;52.076;5.110;2023-02-28T00:19:27;9;9;
72329;PMS5003;60660;52.076;5.110;2023-02-28T00:21:52;11;11;
72329;PMS5003;60660;52.076;5.110;2023-02-28T00:24:17;11;11;
72329;PMS5003;60660;52.076;5.110;2023-02-28T00:26:43;11;9;
72329;PMS5003;60660;52.076;5.110;2023-02-28T00:29:09;12;10;
72329;PMS5003;60660;52.076;5.110;2023-02-28T00:31:34;10;10;
72329;PMS5003;60660;52.076;5.110;2023-02-28T00:34:00;12;10;
72329;PMS5003;60660;52.076;5.110;2023-02-28T00:36:26;12;10;
72329;PMS5003;60660;52.076;5.110;2023-02-28T00:38:51;8;8;
72329;PMS5003;60660;52.076;5.110;2023-02-28T00:41:17;10;10;
72329;PMS5003;60660;52.076;5.110;2023-02-28T00:43:43;10;9;
72329;PMS5003;60660;52.076;5.110;2023-02-28T00:46:08;10;10;
72329;PMS5003;60660;52.076;5.110;2023-02-28T00:48:34;10;9;
72329;PMS5003;60660;52.076;5.110;2023-02-28T00:51:00;10;10;
72329;PMS5003;60660;52.076;5.110;2023-02-28T00:53:26;10;10;
72329;PMS5003;60660;52.076;5.110;2023-02-28T00:55:51;9;9;
72329;PMS5003;60660;52.076;5.110;2023-02-28T00:58:17;13;12;
72329;PMS5003;60660;52.076;5.110;2023-02-28T01:00:42;8;8;
72329;PMS5003;60660;52.076;5.110;2023-02-28T01:03:08;12;9;
72329;PMS5003;60660;52.076;5.110;2023-02-28T01:05:34;9;8;
72329;PMS5003;60660;52.076;5.110;2023-02-28T01:07:59;8;8;
72329;PMS5003;60660;52.076;5.110;2023-02-28T01:10:25;10;10;
72329;PMS5003;60660;52.076;5.110;2023-02-28T01:12:51;6;6;
72329;PMS5003;60660;52.076;5.110;2023-02-28T01:15:16;6;6;
72329;PMS5003;60660;52.076;5.110;2023-02-28T01:17:41;9;8;
72329;PMS5003;60660;52.076;5.110;2023-02-28T01:20:08;10;10;
72329;PMS5003;60660;52.076;5.110;2023-02-28T01:22:34;10;9;
72329;PMS5003;60660;52.076;5.110;2023-02-28T01:24:59;10;10;
72329;PMS5003;60660;52.076;5.110;2023-02-28T01:27:24;10;10;
72329;PMS5003;60660;52.076;5.110;2023-02-28T01:29:50;10;10;
72329;PMS5003;60660;52.076;5.110;2023-02-28T01:32:15;9;8;
72329;PMS5003;60660;52.076;5.110;2023-02-28T01:34:41;9;9;
72329;PMS5003;60660;52.076;5.110;2023-02-28T01:37:07;9;9;
72329;PMS5003;60660;52.076;5.110;2023-02-28T01:39:32;12;12;
72329;PMS5003;60660;52.076;5.110;2023-02-28T01:41:58;10;9;
72329;PMS5003;60660;52.076;5.110;2023-02-28T01:45:29;9;9;
72329;PMS5003;60660;52.076;5.110;2023-02-28T01:46:49;10;10;
72329;PMS5003;60660;52.076;5.110;2023-02-28T01:49:15;8;8;
72329;PMS5003;60660;52.076;5.110;2023-02-28T01:51:41;9;9;
72329;PMS5003;60660;52.076;5.110;2023-02-28T01:54:08;10;10;
72329;PMS5003;60660;52.076;5.110;2023-02-28T01:56:32;9;9;
72329;PMS5003;60660;52.076;5.110;2023-02-28T01:58:57;10;10;
72329;PMS5003;60660;52.076;5.110;2023-02-28T02:01:24;11;10;
72329;PMS5003;60660;52.076;5.110;2023-02-28T02:03:48;10;10;
72329;PMS5003;60660;52.076;5.110;2023-02-28T02:06:14;9;9;
72329;PMS5003;60660;52.076;5.110;2023-02-28T02:08:40;10;10;
72329;PMS5003;60660;52.076;5.110;2023-02-28T02:11:05;12;12;
72329;PMS5003;60660;52.076;5.110;2023-02-28T02:13:37;13;12;
72329;PMS5003;60660;52.076;5.110;2023-02-28T02:15:58;10;10;
72329;PMS5003;60660;52.076;5.110;2023-02-28T02:18:24;10;10;
72329;PMS5003;60660;52.076;5.110;2023-02-28T02:20:56;9;9;
72329;PMS5003;60660;52.076;5.110;2023-02-28T02:23:51;10;10;
72329;PMS5003;60660;52.076;5.110;2023-02-28T02:25:39;12;9;
72329;PMS5003;60660;52.076;5.110;2023-02-28T02:28:09;14;13;
72329;PMS5003;60660;52.076;5.110;2023-02-28T02:30:49;13;13;
72329;PMS5003;60660;52.076;5.110;2023-02-28T02:33:03;10;10;
72329;PMS5003;60660;52.076;5.110;2023-02-28T02:35:21;12;12;
72329;PMS5003;60660;52.076;5.110;2023-02-28T02:37:48;13;13;
72329;PMS5003;60660;52.076;5.110;2023-02-28T02:40:13;12;12;
72329;PMS5003;60660;52.076;5.110;2023-02-28T02:42:39;12;10;
72329;PMS5003;60660;52.076;5.110;2023-02-28T02:45:05;10;10;
72329;PMS5003;60660;52.076;5.110;2023-02-28T02:47:29;12;10;
72329;PMS5003;60660;52.076;5.110;2023-02-28T02:49:55;12;9;
72329;PMS5003;60660;52.076;5.110;2023-02-28T02:52:22;9;9;
72329;PMS5003;60660;52.076;5.110;2023-02-28T02:54:46;9;9;
72329;PMS5003;60660;52.076;5.110;2023-02-28T02:57:13;10;10;
72329;PMS5003;60660;52.076;5.110;2023-02-28T02:59:38;9;9;
72329;PMS5003;60660;52.076;5.110;2023-02-28T03:02:03;13;11;
72329;PMS5003;60660;52.076;5.110;2023-02-28T03:04:30;10;9;
72329;PMS5003;60660;52.076;5.110;2023-02-28T03:06:54;10;10;
72329;PMS5003;60660;52.076;5.110;2023-02-28T03:09:20;7;7;
72329;PMS5003;60660;52.076;5.110;2023-02-28T03:11:45;11;10;
72329;PMS5003;60660;52.076;5.110;2023-02-28T03:14:22;9;7;
72329;PMS5003;60660;52.076;5.110;2023-02-28T03:16:42;12;9;
72329;PMS5003;60660;52.076;5.110;2023-02-28T03:19:04;10;10;
72329;PMS5003;60660;52.076;5.110;2023-02-28T03:21:29;10;9;
72329;PMS5003;60660;52.076;5.110;2023-02-28T03:23:55;11;11;
72329;PMS5003;60660;52.076;5.110;2023-02-28T03:26:20;11;10;
72329;PMS5003;60660;52.076;5.110;2023-02-28T03:28:47;12;9;
72329;PMS5003;60660;52.076;5.110;2023-02-28T03:31:12;11;10;
72329;PMS5003;60660;52.076;5.110;2023-02-28T03:33:38;10;10;
72329;PMS5003;60660;52.076;5.110;2023-02-28T03:36:02;13;10;
72329;PMS5003;60660;52.076;5.110;2023-02-28T03:38:28;13;13;
72329;PMS5003;60660;52.076;5.110;2023-02-28T03:40:55;11;10;
72329;PMS5003;60660;52.076;5.110;2023-02-28T03:43:19;11;11;
72329;PMS5003;60660;52.076;5.110;2023-02-28T03:45:44;13;11;
72329;PMS5003;60660;52.076;5.110;2023-02-28T03:48:11;11;9;
72329;PMS5003;60660;52.076;5.110;2023-02-28T03:50:35;14;13;
72329;PMS5003;60660;52.076;5.110;2023-02-28T03:53:01;13;13;
72329;PMS5003;60660;52.076;5.110;2023-02-28T03:55:27;10;9;
72329;PMS5003;60660;52.076;5.110;2023-02-28T03:57:54;13;11;
72329;PMS5003;60660;52.076;5.110;2023-02-28T04:00:18;11;10;
72329;PMS5003;60660;52.076;5.110;2023-02-28T04:02:43;11;11;
72329;PMS5003;60660;52.076;5.110;2023-02-28T04:05:09;11;11;
72329;PMS5003;60660;52.076;5.110;2023-02-28T04:07:35;13;11;
72329;PMS5003;60660;52.076;5.110;2023-02-28T04:10:00;13;13;
72329;PMS5003;60660;52.076;5.110;2023-02-28T04:12:26;14;14;
72329;PMS5003;60660;52.076;5.110;2023-02-28T04:14:51;13;11;
72329;PMS5003;60660;52.076;5.110;2023-02-28T04:17:16;13;13;
72329;PMS5003;60660;52.076;5.110;2023-02-28T04:19:42;12;12;
72329;PMS5003;60660;52.076;5.110;2023-02-28T04:22:08;14;14;
72329;PMS5003;60660;52.076;5.110;2023-02-28T04:24:34;16;14;
72329;PMS5003;60660;52.076;5.110;2023-02-28T04:26:59;14;14;
72329;PMS5003;60660;52.076;5.110;2023-02-28T04:29:25;20;18;
72329;PMS5003;60660;52.076;5.110;2023-02-28T04:31:50;16;16;
72329;PMS5003;60660;52.076;5.110;2023-02-28T04:34:16;13;13;
72329;PMS5003;60660;52.076;5.110;2023-02-28T04:36:42;17;16;
72329;PMS5003;60660;52.076;5.110;2023-02-28T04:39:08;13;13;
72329;PMS5003;60660;52.076;5.110;2023-02-28T04:41:32;14;14;
72329;PMS5003;60660;52.076;5.110;2023-02-28T04:43:58;19;17;
72329;PMS5003;60660;52.076;5.110;2023-02-28T04:46:24;14;14;
72329;PMS5003;60660;52.076;5.110;2023-02-28T04:48:49;16;15;
72329;PMS5003;60660;52.076;5.110;2023-02-28T04:51:16;16;16;
72329;PMS5003;60660;52.076;5.110;2023-02-28T04:53:41;15;15;
72329;PMS5003;60660;52.076;5.110;2023-02-28T04:56:08;13;12;
72329;PMS5003;60660;52.076;5.110;2023-02-28T04:58:32;16;16;
72329;PMS5003;60660;52.076;5.110;2023-02-28T05:01:01;15;15;
72329;PMS5003;60660;52.076;5.110;2023-02-28T05:03:23;13;13;
72329;PMS5003;60660;52.076;5.110;2023-02-28T05:05:49;17;13;
72329;PMS5003;60660;52.076;5.110;2023-02-28T05:08:14;13;13;
72329;PMS5003;60660;52.076;5.110;2023-02-28T05:10:40;12;12;
72329;PMS5003;60660;52.076;5.110;2023-02-28T05:13:05;12;12;
72329;PMS5003;60660;52.076;5.110;2023-02-28T05:15:31;11;11;
72329;PMS5003;60660;52.076;5.110;2023-02-28T05:17:57;12;12;
72329;PMS5003;60660;52.076;5.110;2023-02-28T05:20:23;10;10;
72329;PMS5003;60660;52.076;5.110;2023-02-28T05:22:49;11;9;
72329;PMS5003;60660;52.076;5.110;2023-02-28T05:25:16;13;12;
72329;PMS5003;60660;52.076;5.110;2023-02-28T05:27:40;12;11;
72329;PMS5003;60660;52.076;5.110;2023-02-28T05:30:06;12;11;
72329;PMS5003;60660;52.076;5.110;2023-02-28T05:32:31;9;9;
72329;PMS5003;60660;52.076;5.110;2023-02-28T05:34:57;15;15;
72329;PMS5003;60660;52.076;5.110;2023-02-28T05:37:23;15;12;
72329;PMS5003;60660;52.076;5.110;2023-02-28T05:39:48;12;12;
72329;PMS5003;60660;52.076;5.110;2023-02-28T05:42:14;13;13;
72329;PMS5003;60660;52.076;5.110;2023-02-28T05:44:40;15;13;
72329;PMS5003;60660;52.076;5.110;2023-02-28T05:47:06;16;16;
72329;PMS5003;60660;52.076;5.110;2023-02-28T05:49:31;16;15;
72329;PMS5003;60660;52.076;5.110;2023-02-28T05:51:57;15;15;
72329;PMS5003;60660;52.076;5.110;2023-02-28T05:54:23;12;12;
72329;PMS5003;60660;52.076;5.110;2023-02-28T05:56:49;16;16;
72329;PMS5003;60660;52.076;5.110;2023-02-28T05:59:14;15;15;
72329;PMS5003;60660;52.076;5.110;2023-02-28T06:01:40;16;15;
72329;PMS5003;60660;52.076;5.110;2023-02-28T06:04:06;20;18;
72329;PMS5003;60660;52.076;5.110;2023-02-28T06:06:31;18;18;
72329;PMS5003;60660;52.076;5.110;2023-02-28T06:08:57;17;15;
72329;PMS5003;60660;52.076;5.110;2023-02-28T06:11:23;17;15;
72329;PMS5003;60660;52.076;5.110;2023-02-28T06:13:48;15;15;
72329;PMS5003;60660;52.076;5.110;2023-02-28T06:16:14;17;15;
72329;PMS5003;60660;52.076;5.110;2023-02-28T06:18:39;28;22;
72329;PMS5003;60660;52.076;5.110;2023-02-28T06:21:05;18;17;
72329;PMS5003;60660;52.076;5.110;2023-02-28T06:23:31;20;18;
72329;PMS5003;60660;52.076;5.110;2023-02-28T06:25:57;22;18;
72329;PMS5003;60660;52.076;5.110;2023-02-28T06:28:23;22;18;
72329;PMS5003;60660;52.076;5.110;2023-02-28T06:30:48;21;20;
72329;PMS5003;60660;52.076;5.110;2023-02-28T06:33:14;18;18;
72329;PMS5003;60660;52.076;5.110;2023-02-28T06:35:42;20;18;
72329;PMS5003;60660;52.076;5.110;2023-02-28T06:38:05;22;21;
72329;PMS5003;60660;52.076;5.110;2023-02-28T06:40:31;21;18;
72329;PMS5003;60660;52.076;5.110;2023-02-28T06:42:57;19;19;
72329;PMS5003;60660;52.076;5.110;2023-02-28T06:45:23;21;18;
72329;PMS5003;60660;52.076;5.110;2023-02-28T06:47:48;18;18;
72329;PMS5003;60660;52.076;5.110;2023-02-28T06:50:14;18;18;
72329;PMS5003;60660;52.076;5.110;2023-02-28T06:52:40;19;18;
72329;PMS5003;60660;52.076;5.110;2023-02-28T06:55:06;22;20;
72329;PMS5003;60660;52.076;5.110;2023-02-28T06:57:32;19;19;
72329;PMS5003;60660;52.076;5.110;2023-02-28T06:59:57;19;17;
72329;PMS5003;60660;52.076;5.110;2023-02-28T07:02:22;22;20;
72329;PMS5003;60660;52.076;5.110;2023-02-28T07:04:48;21;19;
72329;PMS5003;60660;52.076;5.110;2023-02-28T07:07:14;19;19;
72329;PMS5003;60660;52.076;5.110;2023-02-28T07:09:39;19;19;
72329;PMS5003;60660;52.076;5.110;2023-02-28T07:12:04;24;22;
72329;PMS5003;60660;52.076;5.110;2023-02-28T07:14:30;20;18;
72329;PMS5003;60660;52.076;5.110;2023-02-28T07:16:55;18;18;
72329;PMS5003;60660;52.076;5.110;2023-02-28T07:19:20;21;21;
72329;PMS5003;60660;52.076;5.110;2023-02-28T07:21:46;18;17;
72329;PMS5003;60660;52.076;5.110;2023-02-28T07:24:11;17;16;
72329;PMS5003;60660;52.076;5.110;2023-02-28T07:26:37;18;18;
72329;PMS5003;60660;52.076;5.110;2023-02-28T07:29:02;18;18;
72329;PMS5003;60660;52.076;5.110;2023-02-28T07:31:28;17;17;
72329;PMS5003;60660;52.076;5.110;2023-02-28T07:33:54;20;17;
72329;PMS5003;60660;52.076;5.110;2023-02-28T07:36:21;18;18;
72329;PMS5003;60660;52.076;5.110;2023-02-28T07:38:45;22;20;
72329;PMS5003;60660;52.076;5.110;2023-02-28T07:41:11;20;19;
72329;PMS5003;60660;52.076;5.110;2023-02-28T07:43:36;24;21;
72329;PMS5003;60660;52.076;5.110;2023-02-28T07:46:02;26;22;
72329;PMS5003;60660;52.076;5.110;2023-02-28T07:48:27;18;17;
72329;PMS5003;60660;52.076;5.110;2023-02-28T07:50:54;17;17;
72329;PMS5003;60660;52.076;5.110;2023-02-28T07:53:18;22;21;
72329;PMS5003;60660;52.076;5.110;2023-02-28T07:55:43;18;17;
72329;PMS5003;60660;52.076;5.110;2023-02-28T07:58:09;14;13;
72329;PMS5003;60660;52.076;5.110;2023-02-28T08:00:34;14;14;
72329;PMS5003;60660;52.076;5.110;2023-02-28T08:03:00;14;14;
72329;PMS5003;60660;52.076;5.110;2023-02-28T08:05:25;19;15;
72329;PMS5003;60660;52.076;5.110;2023-02-28T08:07:51;14;14;
72329;PMS5003;60660;52.076;5.110;2023-02-28T08:10:16;16;14;
72329;PMS5003;60660;52.076;5.110;2023-02-28T08:12:42;16;16;
72329;PMS5003;60660;52.076;5.110;2023-02-28T08:15:08;18;18;
72329;PMS5003;60660;52.076;5.110;2023-02-28T08:17:34;21;21;
72329;PMS5003;60660;52.076;5.110;2023-02-28T08:20:00;21;18;
72329;PMS5003;60660;52.076;5.110;2023-02-28T08:22:25;18;18;
72329;PMS5003;60660;52.076;5.110;2023-02-28T08:24:50;18;18;
72329;PMS5003;60660;52.076;5.110;2023-02-28T08:27:15;20;20;
72329;PMS5003;60660;52.076;5.110;2023-02-28T08:29:41;22;21;
72329;PMS5003;60660;52.076;5.110;2023-02-28T08:32:07;21;17;
72329;PMS5003;60660;52.076;5.110;2023-02-28T08:34:32;24;21;
72329;PMS5003;60660;52.076;5.110;2023-02-28T08:36:57;23;21;
72329;PMS5003;60660;52.076;5.110;2023-02-28T08:39:23;20;20;
72329;PMS5003;60660;52.076;5.110;2023-02-28T08:41:48;21;21;
72329;PMS5003;60660;52.076;5.110;2023-02-28T08:44:14;19;19;
72329;PMS5003;60660;52.076;5.110;2023-02-28T08:46:40;20;19;
72329;PMS5003;60660;52.076;5.110;2023-02-28T08:49:05;20;19;
72329;PMS5003;60660;52.076;5.110;2023-02-28T08:51:31;16;16;
72329;PMS5003;60660;52.076;5.110;2023-02-28T08:53:57;21;20;
72329;PMS5003;60660;52.076;5.110;2023-02-28T08:56:22;17;17;
72329;PMS5003;60660;52.076;5.110;2023-02-28T08:58:48;19;17;
72329;PMS5003;60660;52.076;5.110;2023-02-28T09:01:14;13;12;
72329;PMS5003;60660;52.076;5.110;2023-02-28T09:03:39;15;13;
72329;PMS5003;60660;52.076;5.110;2023-02-28T09:06:05;19;17;
72329;PMS5003;60660;52.076;5.110;2023-02-28T09:08:30;13;12;
72329;PMS5003;60660;52.076;5.110;2023-02-28T09:11:01;17;15;
72329;PMS5003;60660;52.076;5.110;2023-02-28T09:13:22;16;16;
72329;PMS5003;60660;52.076;5.110;2023-02-28T09:15:48;14;14;
72329;PMS5003;60660;52.076;5.110;2023-02-28T09:18:14;13;13;
72329;PMS5003;60660;52.076;5.110;2023-02-28T09:20:39;13;13;
72329;PMS5003;60660;52.076;5.110;2023-02-28T09:23:04;14;14;
72329;PMS5003;60660;52.076;5.110;2023-02-28T09:25:30;16;13;
72329;PMS5003;60660;52.076;5.110;2023-02-28T09:27:56;14;12;
72329;PMS5003;60660;52.076;5.110;2023-02-28T09:30:21;13;13;
72329;PMS5003;60660;52.076;5.110;2023-02-28T09:32:47;13;13;
72329;PMS5003;60660;52.076;5.110;2023-02-28T09:35:13;13;13;
72329;PMS5003;60660;52.076;5.110;2023-02-28T09:37:38;12;12;
72329;PMS5003;60660;52.076;5.110;2023-02-28T09:40:05;10;10;
72329;PMS5003;60660;52.076;5.110;2023-02-28T09:43:30;12;10;
72329;PMS5003;60660;52.076;5.110;2023-02-28T09:45:37;13;13;
72329;PMS5003;60660;52.076;5.110;2023-02-28T09:48:09;13;11;
72329;PMS5003;60660;52.076;5.110;2023-02-28T09:51:27;13;11;
72329;PMS5003;60660;52.076;5.110;2023-02-28T09:53:54;13;11;
72329;PMS5003;60660;52.076;5.110;2023-02-28T09:56:14;14;14;
72329;PMS5003;60660;52.076;5.110;2023-02-28T09:58:40;13;13;
72329;PMS5003;60660;52.076;5.110;2023-02-28T10:01:06;13;13;
72329;PMS5003;60660;52.076;5.110;2023-02-28T10:03:32;13;13;
72329;PMS5003;60660;52.076;5.110;2023-02-28T10:06:05;11;11;
72329;PMS5003;60660;52.076;5.110;2023-02-28T10:08:22;14;13;
72329;PMS5003;60660;52.076;5.110;2023-02-28T10:10:54;10;10;
72329;PMS5003;60660;52.076;5.110;2023-02-28T10:13:23;10;7;
72329;PMS5003;60660;52.076;5.110;2023-02-28T10:15:38;6;6;
72329;PMS5003;60660;52.076;5.110;2023-02-28T10:18:04;10;10;
72329;PMS5003;60660;52.076;5.110;2023-02-28T10:20:29;11;10;
72329;PMS5003;60660;52.076;5.110;2023-02-28T10:23:02;10;10;
72329;PMS5003;60660;52.076;5.110;2023-02-28T10:25:22;7;7;
72329;PMS5003;60660;52.076;5.110;2023-02-28T10:27:47;9;9;
72329;PMS5003;60660;52.076;5.110;2023-02-28T10:30:36;11;11;
72329;PMS5003;60660;52.076;5.110;2023-02-28T10:32:59;10;10;
72329;PMS5003;60660;52.076;5.110;2023-02-28T10:35:25;11;11;
72329;PMS5003;60660;52.076;5.110;2023-02-28T10:37:54;11;11;
72329;PMS5003;60660;52.076;5.110;2023-02-28T10:40:25;10;10;
72329;PMS5003;60660;52.076;5.110;2023-02-28T10:42:41;8;7;
72329;PMS5003;60660;52.076;5.110;2023-02-28T10:45:10;11;11;
72329;PMS5003;60660;52.076;5.110;2023-02-28T10:47:33;14;13;
72329;PMS5003;60660;52.076;5.110;2023-02-28T10:49:59;9;8;
72329;PMS5003;60660;52.076;5.110;2023-02-28T10:52:32;10;9;
72329;PMS5003;60660;52.076;5.110;2023-02-28T10:54:48;8;8;
72329;PMS5003;60660;52.076;5.110;2023-02-28T10:57:16;10;10;
72329;PMS5003;60660;52.076;5.110;2023-02-28T10:59:39;9;9;
72329;PMS5003;60660;52.076;5.110;2023-02-28T11:02:28;8;8;
72329;PMS5003;60660;52.076;5.110;2023-02-28T11:04:36;9;9;
72329;PMS5003;60660;52.076;5.110;2023-02-28T11:06:57;10;10;
72329;PMS5003;60660;52.076;5.110;2023-02-28T11:09:23;7;7;
72329;PMS5003;60660;52.076;5.110;2023-02-28T11:11:47;9;9;
72329;PMS5003;60660;52.076;5.110;2023-02-28T11:14:16;11;8;
72329;PMS5003;60660;52.076;5.110;2023-02-28T11:16:37;10;8;
72329;PMS5003;60660;52.076;5.110;2023-02-28T11:19:03;9;9;
72329;PMS5003;60660;52.076;5.110;2023-02-28T11:21:29;7;7;
72329;PMS5003;60660;52.076;5.110;2023-02-28T11:23:54;7;7;
72329;PMS5003;60660;52.076;5.110;2023-02-28T11:26:35;9;9;
72329;PMS5003;60660;52.076;5.110;2023-02-28T11:28:43;10;10;
72329;PMS5003;60660;52.076;5.110;2023-02-28T11:31:16;9;8;
72329;PMS5003;60660;52.076;5.110;2023-02-28T11:33:40;7;7;
72329;PMS5003;60660;52.076;5.110;2023-02-28T11:36:01;8;8;
72329;PMS5003;60660;52.076;5.110;2023-02-28T11:38:34;5;5;
72329;PMS5003;60660;52.076;5.110;2023-02-28T11:41:05;8;7;
72329;PMS5003;60660;52.076;5.110;2023-02-28T11:43:29;8;8;
72329;PMS5003;60660;52.076;5.110;2023-02-28T11:45:55;8;8;
72329;PMS5003;60660;52.076;5.110;2023-02-28T11:48:21;8;8;
72329;PMS5003;60660;52.076;5.110;2023-02-28T11:50:45;7;7;
72329;PMS5003;60660;52.076;5.110;2023-02-28T11:53:10;6;5;
72329;PMS5003;60660;52.076;5.110;2023-02-28T11:55:32;7;7;
72329;PMS5003;60660;52.076;5.110;2023-02-28T11:58:03;7;7;
72329;PMS5003;60660;52.076;5.110;2023-02-28T12:00:37;10;9;
72329;PMS5003;60660;52.076;5.110;2023-02-28T12:02:59;5;5;
72329;PMS5003;60660;52.076;5.110;2023-02-28T12:05:24;7;7;
72329;PMS5003;60660;52.076;5.110;2023-02-28T12:07:55;7;6;
72329;PMS5003;60660;52.076;5.110;2023-02-28T12:10:14;7;7;
72329;PMS5003;60660;52.076;5.110;2023-02-28T12:12:39;8;8;
72329;PMS5003;60660;52.076;5.110;2023-02-28T12:15:06;10;9;
72329;PMS5003;60660;52.076;5.110;2023-02-28T12:17:30;9;9;
72329;PMS5003;60660;52.076;5.110;2023-02-28T12:19:54;7;7;
72329;PMS5003;60660;52.076;5.110;2023-02-28T12:22:24;6;6;
72329;PMS5003;60660;52.076;5.110;2023-02-28T12:24:57;7;7;
72329;PMS5003;60660;52.076;5.110;2023-02-28T12:27:09;8;8;
72329;PMS5003;60660;52.076;5.110;2023-02-28T12:29:34;6;6;
72329;PMS5003;60660;52.076;5.110;2023-02-28T12:31:59;7;7;
72329;PMS5003;60660;52.076;5.110;2023-02-28T12:34:25;5;5;
72329;PMS5003;60660;52.076;5.110;2023-02-28T12:36:49;9;9;
72329;PMS5003;60660;52.076;5.110;2023-02-28T12:39:15;8;8;
72329;PMS5003;60660;52.076;5.110;2023-02-28T12:41:41;9;7;
72329;PMS5003;60660;52.076;5.110;2023-02-28T12:44:06;14;14;
72329;PMS5003;60660;52.076;5.110;2023-02-28T12:46:32;8;8;
72329;PMS5003;60660;52.076;5.110;2023-02-28T12:48:56;7;7;
72329;PMS5003;60660;52.076;5.110;2023-02-28T12:51:21;7;7;
72329;PMS5003;60660;52.076;5.110;2023-02-28T12:53:49;7;7;
72329;PMS5003;60660;52.076;5.110;2023-02-28T12:56:13;7;7;
72329;PMS5003;60660;52.076;5.110;2023-02-28T12:58:37;7;7;
72329;PMS5003;60660;52.076;5.110;2023-02-28T13:01:08;7;7;
72329;PMS5003;60660;52.076;5.110;2023-02-28T13:03:32;5;5;
72329;PMS5003;60660;52.076;5.110;2023-02-28T13:05:58;11;10;
72329;PMS5003;60660;52.076;5.110;2023-02-28T13:08:21;6;6;
72329;PMS5003;60660;52.076;5.110;2023-02-28T13:10:44;8;8;
72329;PMS5003;60660;52.076;5.110;2023-02-28T13:13:11;10;9;
72329;PMS5003;60660;52.076;5.110;2023-02-28T13:15:33;6;6;
72329;PMS5003;60660;52.076;5.110;2023-02-28T13:17:58;5;5;
72329;PMS5003;60660;52.076;5.110;2023-02-28T13:20:24;6;6;
72329;PMS5003;60660;52.076;5.110;2023-02-28T13:22:50;10;9;
72329;PMS5003;60660;52.076;5.110;2023-02-28T13:26:19;6;6;
72329;PMS5003;60660;52.076;5.110;2023-02-28T13:27:40;10;8;
72329;PMS5003;60660;52.076;5.110;2023-02-28T13:31:10;7;7;
72329;PMS5003;60660;52.076;5.110;2023-02-28T13:32:32;6;6;
72329;PMS5003;60660;52.076;5.110;2023-02-28T13:35:37;8;6;
72329;PMS5003;60660;52.076;5.110;2023-02-28T13:37:37;8;8;
72329;PMS5003;60660;52.076;5.110;2023-02-28T13:39:47;6;6;
72329;PMS5003;60660;52.076;5.110;2023-02-28T13:42:33;6;6;
72329;PMS5003;60660;52.076;5.110;2023-02-28T13:45:18;9;7;
72329;PMS5003;60660;52.076;5.110;2023-02-28T13:47:35;7;7;
72329;PMS5003;60660;52.076;5.110;2023-02-28T13:49:29;7;6;
72329;PMS5003;60660;52.076;5.110;2023-02-28T13:51:53;8;8;
72329;PMS5003;60660;52.076;5.110;2023-02-28T13:54:21;8;8;
72329;PMS5003;60660;52.076;5.110;2023-02-28T13:56:45;9;7;
72329;PMS5003;60660;52.076;5.110;2023-02-28T13:59:14;10;10;
72329;PMS5003;60660;52.076;5.110;2023-02-28T14:01:39;6;6;
72329;PMS5003;60660;52.076;5.110;2023-02-28T14:04:08;9;7;
72329;PMS5003;60660;52.076;5.110;2023-02-28T14:06:25;10;10;
72329;PMS5003;60660;52.076;5.110;2023-02-28T14:08:52;9;9;
72329;PMS5003;60660;52.076;5.110;2023-02-28T14:11:24;9;8;
72329;PMS5003;60660;52.076;5.110;2023-02-28T14:13:41;6;6;
72329;PMS5003;60660;52.076;5.110;2023-02-28T14:16:06;6;6;
72329;PMS5003;60660;52.076;5.110;2023-02-28T14:18:32;8;8;
72329;PMS5003;60660;52.076;5.110;2023-02-28T14:20:59;6;6;
72329;PMS5003;60660;52.076;5.110;2023-02-28T14:23:34;9;9;
72329;PMS5003;60660;52.076;5.110;2023-02-28T14:25:48;6;6;
72329;PMS5003;60660;52.076;5.110;2023-02-28T14:28:14;9;8;
72329;PMS5003;60660;52.076;5.110;2023-02-28T14:31:10;10;8;
72329;PMS5003;60660;52.076;5.110;2023-02-28T14:33:08;10;10;
72329;PMS5003;60660;52.076;5.110;2023-02-28T14:35:39;6;6;
72329;PMS5003;60660;52.076;5.110;2023-02-28T14:37:53;9;9;
72329;PMS5003;60660;52.076;5.110;2023-02-28T14:40:20;9;9;
72329;PMS5003;60660;52.076;5.110;2023-02-28T14:42:46;9;8;
72329;PMS5003;60660;52.076;5.110;2023-02-28T14:45:16;10;9;
72329;PMS5003;60660;52.076;5.110;2023-02-28T14:47:35;9;9;
72329;PMS5003;60660;52.076;5.110;2023-02-28T14:50:00;8;8;
72329;PMS5003;60660;52.076;5.110;2023-02-28T14:52:26;10;10;
72329;PMS5003;60660;52.076;5.110;2023-02-28T14:54:51;11;10;
72329;PMS5003;60660;52.076;5.110;2023-02-28T14:57:22;10;10;
72329;PMS5003;60660;52.076;5.110;2023-02-28T14:59:42;8;8;
72329;PMS5003;60660;52.076;5.110;2023-02-28T15:02:24;9;8;
72329;PMS5003;60660;52.076;5.110;2023-02-28T15:04:32;9;9;
72329;PMS5003;60660;52.076;5.110;2023-02-28T15:07:14;11;11;
72329;PMS5003;60660;52.076;5.110;2023-02-28T15:09:23;12;11;
72329;PMS5003;60660;52.076;5.110;2023-02-28T15:11:48;13;11;
72329;PMS5003;60660;52.076;5.110;2023-02-28T15:14:15;9;9;
72329;PMS5003;60660;52.076;5.110;2023-02-28T15:16:40;13;12;
72329;PMS5003;60660;52.076;5.110;2023-02-28T15:19:05;10;10;
72329;PMS5003;60660;52.076;5.110;2023-02-28T15:21:31;12;10;
72329;PMS5003;60660;52.076;5.110;2023-02-28T15:23:56;8;8;
72329;PMS5003;60660;52.076;5.110;2023-02-28T15:26:22;8;8;
72329;PMS5003;60660;52.076;5.110;2023-02-28T15:28:47;7;7;
72329;PMS5003;60660;52.076;5.110;2023-02-28T15:31:18;9;9;
72329;PMS5003;60660;52.076;5.110;2023-02-28T15:33:37;9;9;
72329;PMS5003;60660;52.076;5.110;2023-02-28T15:36:03;10;9;
72329;PMS5003;60660;52.076;5.110;2023-02-28T15:38:28;9;9;
72329;PMS5003;60660;52.076;5.110;2023-02-28T15:40:54;10;9;
72329;PMS5003;60660;52.076;5.110;2023-02-28T15:43:23;9;9;
72329;PMS5003;60660;52.076;5.110;2023-02-28T15:45:45;9;9;
72329;PMS5003;60660;52.076;5.110;2023-02-28T15:48:14;10;10;
72329;PMS5003;60660;52.076;5.110;2023-02-28T15:50:35;12;9;
72329;PMS5003;60660;52.076;5.110;2023-02-28T15:53:01;9;9;
72329;PMS5003;60660;52.076;5.110;2023-02-28T15:55:27;9;9;
72329;PMS5003;60660;52.076;5.110;2023-02-28T15:57:52;8;7;
72329;PMS5003;60660;52.076;5.110;2023-02-28T16:00:19;7;7;
72329;PMS5003;60660;52.076;5.110;2023-02-28T16:02:43;10;10;
72329;PMS5003;60660;52.076;5.110;2023-02-28T16:05:25;22;21;
72329;PMS5003;60660;52.076;5.110;2023-02-28T16:07:34;12;12;
72329;PMS5003;60660;52.076;5.110;2023-02-28T16:10:00;10;8;
72329;PMS5003;60660;52.076;5.110;2023-02-28T16:12:26;34;31;
72329;PMS5003;60660;52.076;5.110;2023-02-28T16:14:51;14;14;
72329;PMS5003;60660;52.076;5.110;2023-02-28T16:17:19;24;20;